createdAt,value
2022-09-01T00:01:31.506Z,950.23
2022-09-01T00:03:57.954Z,950.20
2022-09-01T00:06:24.294Z,950.24
2022-09-01T00:08:50.662Z,950.21
2022-09-01T00:11:17.060Z,950.20
2022-09-01T00:13:43.559Z,950.24
2022-09-01T00:16:10.074Z,950.13
2022-09-01T00:18:36.375Z,950.16
2022-09-01T00:21:02.732Z,950.07
2022-09-01T00:23:29.091Z,950.06
2022-09-01T00:25:55.528Z,950.07
2022-09-01T00:28:21.925Z,950.10
2022-09-01T00:30:48.384Z,950.11
2022-09-01T00:33:14.731Z,950.08
2022-09-01T00:35:41.094Z,950.09
2022-09-01T00:38:07.477Z,950.10
2022-09-01T00:40:33.883Z,950.15
2022-09-01T00:43:00.216Z,950.18
2022-09-01T00:45:26.618Z,950.16
2022-09-01T00:47:53.016Z,950.28
2022-09-01T00:50:19.459Z,950.29
2022-09-01T00:52:45.826Z,950.26
2022-09-01T00:55:12.198Z,950.33
2022-09-01T00:57:38.556Z,950.30
2022-09-01T01:00:04.930Z,950.30
2022-09-01T01:02:31.359Z,950.26
2022-09-01T01:04:57.743Z,950.28
2022-09-01T01:07:24.105Z,950.26
2022-09-01T01:09:50.473Z,950.31
2022-09-01T01:12:16.868Z,950.38
2022-09-01T01:14:44.057Z,950.42
2022-09-01T01:17:09.679Z,950.36
2022-09-01T01:19:39.021Z,950.37
2022-09-01T01:22:02.408Z,950.26
2022-09-01T01:24:28.773Z,950.20
2022-09-01T01:26:55.235Z,950.29
2022-09-01T01:29:21.675Z,950.27
2022-09-01T01:31:48.035Z,950.33
2022-09-01T01:34:14.410Z,950.35
2022-09-01T01:36:40.771Z,950.34
2022-09-01T01:39:07.188Z,950.35
2022-09-01T01:41:33.570Z,950.33
2022-09-01T01:43:59.935Z,950.33
2022-09-01T01:46:26.344Z,950.38
2022-09-01T01:48:52.679Z,950.37
2022-09-01T01:51:19.070Z,950.38
2022-09-01T01:53:45.481Z,950.44
2022-09-01T01:56:11.844Z,950.56
2022-09-01T01:58:38.222Z,950.54
2022-09-01T02:01:04.699Z,950.57
2022-09-01T02:03:30.988Z,950.53
2022-09-01T02:05:57.408Z,950.53
2022-09-01T02:08:23.866Z,950.58
2022-09-01T02:10:50.234Z,950.59
2022-09-01T02:13:16.640Z,950.59
2022-09-01T02:15:43.023Z,950.62
2022-09-01T02:18:09.397Z,950.64
2022-09-01T02:20:35.786Z,950.64
2022-09-01T02:23:02.154Z,950.59
2022-09-01T02:25:28.515Z,950.61
2022-09-01T02:27:54.885Z,950.65
2022-09-01T02:30:21.257Z,950.60
2022-09-01T02:32:47.633Z,950.56
2022-09-01T02:35:14.022Z,950.60
2022-09-01T02:37:40.455Z,950.52
2022-09-01T02:40:06.890Z,950.52
2022-09-01T02:42:33.221Z,950.55
2022-09-01T02:44:59.587Z,950.46
2022-09-01T02:47:25.957Z,950.50
2022-09-01T02:49:52.407Z,950.37
2022-09-01T02:52:18.816Z,950.36
2022-09-01T02:54:45.205Z,950.39
2022-09-01T02:57:11.613Z,950.44
2022-09-01T02:59:43.121Z,950.37
2022-09-01T03:02:04.480Z,950.33
2022-09-01T03:04:30.916Z,950.36
2022-09-01T03:06:57.346Z,950.34
2022-09-01T03:09:23.704Z,950.32
2022-09-01T03:11:50.210Z,950.36
2022-09-01T03:14:16.643Z,950.39
2022-09-01T03:16:43.120Z,950.36
2022-09-01T03:19:09.485Z,950.37
2022-09-01T03:21:35.944Z,950.42
2022-09-01T03:24:02.374Z,950.43
2022-09-01T03:26:28.801Z,950.41
2022-09-01T03:28:55.185Z,950.43
2022-09-01T03:31:21.593Z,950.45
2022-09-01T03:33:47.927Z,950.42
2022-09-01T03:36:15.033Z,950.48
2022-09-01T03:38:40.691Z,950.43
2022-09-01T03:41:07.205Z,950.45
2022-09-01T03:43:35.539Z,950.50
2022-09-01T03:45:59.970Z,950.49
2022-09-01T03:48:26.324Z,950.53
2022-09-01T03:50:52.685Z,950.52
2022-09-01T03:53:19.070Z,950.49
2022-09-01T03:55:45.494Z,950.45
2022-09-01T03:58:11.907Z,950.57
2022-09-01T04:00:38.397Z,950.54
2022-09-01T04:03:04.790Z,950.49
2022-09-01T04:05:31.225Z,950.52
2022-09-01T04:07:57.656Z,950.52
2022-09-01T04:10:24.032Z,950.52
2022-09-01T04:12:50.426Z,950.52
2022-09-01T04:15:16.860Z,950.62
2022-09-01T04:17:43.223Z,950.54
2022-09-01T04:20:09.593Z,950.55
2022-09-01T04:22:35.974Z,950.49
2022-09-01T04:25:02.360Z,950.50
2022-09-01T04:27:28.721Z,950.50
2022-09-01T04:29:57.683Z,950.55
2022-09-01T04:32:21.508Z,950.48
2022-09-01T04:34:47.874Z,950.50
2022-09-01T04:37:14.341Z,950.49
2022-09-01T04:39:40.709Z,950.51
2022-09-01T04:42:07.077Z,950.49
2022-09-01T04:44:33.540Z,950.50
2022-09-01T04:46:59.972Z,950.50
2022-09-01T04:49:26.347Z,950.54
2022-09-01T04:51:54.226Z,950.46
2022-09-01T04:54:19.205Z,950.50
2022-09-01T04:56:45.589Z,950.48
2022-09-01T04:59:11.987Z,950.49
2022-09-01T05:01:38.336Z,950.45
2022-09-01T05:04:04.801Z,950.48
2022-09-01T05:06:31.266Z,950.50
2022-09-01T05:08:57.638Z,950.51
2022-09-01T05:11:24.238Z,950.47
2022-09-01T05:13:50.542Z,950.52
2022-09-01T05:16:20.338Z,950.50
2022-09-01T05:18:43.297Z,950.50
2022-09-01T05:21:09.682Z,950.51
2022-09-01T05:23:36.166Z,950.44
2022-09-01T05:26:02.595Z,950.48
2022-09-01T05:28:28.993Z,950.47
2022-09-01T05:30:55.378Z,950.52
2022-09-01T05:33:22.053Z,950.49
2022-09-01T05:35:48.242Z,950.46
2022-09-01T05:38:14.616Z,950.39
2022-09-01T05:40:41.128Z,950.42
2022-09-01T05:43:07.381Z,950.38
2022-09-01T05:45:56.279Z,950.46
2022-09-01T05:48:00.196Z,950.44
2022-09-01T05:50:26.560Z,950.45
2022-09-01T05:52:52.972Z,950.50
2022-09-01T05:55:19.353Z,950.53
2022-09-01T05:57:45.822Z,950.51
2022-09-01T06:00:12.192Z,950.52
2022-09-01T06:02:38.671Z,950.53
2022-09-01T06:05:04.974Z,950.51
2022-09-01T06:07:31.361Z,950.50
2022-09-01T06:09:57.727Z,950.38
2022-09-01T06:12:24.215Z,950.36
2022-09-01T06:14:50.584Z,950.36
2022-09-01T06:17:17.035Z,950.35
2022-09-01T06:19:43.522Z,950.42
2022-09-01T06:22:09.953Z,950.42
2022-09-01T06:24:36.310Z,950.39
2022-09-01T06:27:02.805Z,950.40
2022-09-01T06:29:29.178Z,950.45
2022-09-01T06:31:55.562Z,950.48
2022-09-01T06:34:21.971Z,950.47
2022-09-01T06:36:48.347Z,950.56
2022-09-01T06:39:14.734Z,950.43
2022-09-01T06:41:41.237Z,950.30
2022-09-01T06:44:12.399Z,950.31
2022-09-01T06:46:35.941Z,950.31
2022-09-01T06:49:00.408Z,950.33
2022-09-01T06:51:26.837Z,950.31
2022-09-01T06:53:53.277Z,950.31
2022-09-01T06:56:19.705Z,950.30
2022-09-01T06:58:46.108Z,950.30
2022-09-01T07:01:12.479Z,950.29
2022-09-01T07:03:38.917Z,950.32
2022-09-01T07:06:05.281Z,950.36
2022-09-01T07:08:31.785Z,950.39
2022-09-01T07:13:24.592Z,950.39
2022-09-01T07:18:17.435Z,950.25
2022-09-01T07:23:10.358Z,950.25
2022-09-01T07:26:00.698Z,950.22
2022-09-01T07:28:03.382Z,950.25
2022-09-01T07:30:29.746Z,950.27
2022-09-01T07:32:56.116Z,950.26
2022-09-01T07:35:22.579Z,950.24
2022-09-01T07:38:47.323Z,950.26
2022-09-01T07:52:27.385Z,950.26
2022-09-01T07:54:53.790Z,950.20
2022-09-01T07:57:20.183Z,950.21
2022-09-01T07:59:46.563Z,950.23
2022-09-01T08:02:13.077Z,950.26
2022-09-01T08:04:39.384Z,950.32
2022-09-01T08:07:05.846Z,950.28
2022-09-01T08:09:37.794Z,950.26
2022-09-01T08:12:02.182Z,950.31
2022-09-01T08:14:25.052Z,950.25
2022-09-01T08:16:53.001Z,950.21
2022-09-01T08:19:17.788Z,950.21
2022-09-01T08:21:44.156Z,950.14
2022-09-01T08:24:10.542Z,950.21
2022-09-01T08:26:36.914Z,950.23
2022-09-01T08:29:03.274Z,950.20
2022-09-01T08:31:31.231Z,950.15
2022-09-01T08:33:56.198Z,950.11
2022-09-01T08:36:24.877Z,950.12
2022-09-01T08:38:49.068Z,950.07
2022-09-01T08:41:15.501Z,950.06
2022-09-01T08:43:41.933Z,950.08
2022-09-01T08:46:08.332Z,950.04
2022-09-01T08:49:23.568Z,949.99
2022-09-01T08:51:01.129Z,950.01
2022-09-01T08:53:27.563Z,949.96
2022-09-01T08:55:53.948Z,949.90
2022-09-01T08:58:20.518Z,949.92
2022-09-01T09:00:50.524Z,949.83
2022-09-01T09:03:13.435Z,949.81
2022-09-01T09:05:39.726Z,949.78
2022-09-01T09:08:07.602Z,949.72
2022-09-01T09:10:32.539Z,949.69
2022-09-01T09:12:58.912Z,949.67
2022-09-01T09:15:25.383Z,949.63
2022-09-01T09:17:57.511Z,949.61
2022-09-01T09:20:18.222Z,949.64
2022-09-01T09:22:44.585Z,949.62
2022-09-01T09:25:10.986Z,949.63
2022-09-01T09:27:37.370Z,949.56
2022-09-01T09:30:08.244Z,949.57
2022-09-01T09:32:50.529Z,949.53
2022-09-01T09:34:56.620Z,949.49
2022-09-01T09:37:23.164Z,949.49
2022-09-01T09:39:49.415Z,949.52
2022-09-01T09:42:15.775Z,949.41
2022-09-01T09:44:42.141Z,949.40
2022-09-01T09:47:27.222Z,949.39
2022-09-01T09:49:41.402Z,949.37
2022-09-01T09:52:01.400Z,949.37
2022-09-01T09:54:27.775Z,949.34
2022-09-01T09:56:54.204Z,949.34
2022-09-01T09:59:39.476Z,949.33
2022-09-01T10:01:47.112Z,949.32
2022-09-01T10:04:13.561Z,949.31
2022-09-01T10:06:39.863Z,949.25
2022-09-01T10:09:06.253Z,949.29
2022-09-01T10:11:35.850Z,949.19
2022-09-01T10:13:59.086Z,949.12
2022-09-01T10:16:26.912Z,949.16
2022-09-01T10:18:51.902Z,949.14
2022-09-01T10:21:18.282Z,949.14
2022-09-01T10:23:44.960Z,949.15
2022-09-01T10:26:11.024Z,949.02
2022-09-01T10:28:37.429Z,949.10
2022-09-01T10:31:03.975Z,949.10
2022-09-01T10:33:30.248Z,949.08
2022-09-01T10:35:56.725Z,949.02
2022-09-01T10:38:23.091Z,949.01
2022-09-01T10:40:50.054Z,948.99
2022-09-01T10:43:15.853Z,948.95
2022-09-01T10:45:42.282Z,948.89
2022-09-01T10:48:13.042Z,948.89
2022-09-01T10:50:36.069Z,948.86
2022-09-01T10:53:01.449Z,948.90
2022-09-01T10:55:27.780Z,948.86
2022-09-01T10:57:54.176Z,948.91
2022-09-01T11:00:36.586Z,948.87
2022-09-01T11:02:47.030Z,948.81
2022-09-01T11:05:13.323Z,948.76
2022-09-01T11:07:59.922Z,948.79
2022-09-01T11:10:11.101Z,948.78
2022-09-01T11:12:33.688Z,948.64
2022-09-01T11:15:00.208Z,948.67
2022-09-01T11:17:26.829Z,948.69
2022-09-01T11:19:53.130Z,948.64
2022-09-01T11:22:19.662Z,948.64
2022-09-01T11:24:49.611Z,948.59
2022-09-01T11:27:12.450Z,948.56
2022-09-01T11:29:38.808Z,948.45
2022-09-01T11:32:05.231Z,948.51
2022-09-01T11:34:31.639Z,948.55
2022-09-01T11:36:58.062Z,948.50
2022-09-01T11:39:24.605Z,948.49
2022-09-01T11:41:55.756Z,948.34
2022-09-01T11:44:17.356Z,948.33
2022-09-01T11:46:43.993Z,948.28
2022-09-01T11:49:10.480Z,948.31
2022-09-01T11:51:36.864Z,948.21
2022-09-01T11:54:03.302Z,948.21
2022-09-01T11:56:29.675Z,948.13
2022-09-01T11:58:56.040Z,948.17
2022-09-01T12:01:22.497Z,948.13
2022-09-01T12:03:49.189Z,948.13
2022-09-01T12:06:15.528Z,948.12
2022-09-01T12:08:41.891Z,948.06
2022-09-01T12:11:08.282Z,948.03
2022-09-01T12:13:34.673Z,948.06
2022-09-01T12:16:17.402Z,948.05
2022-09-01T12:18:27.469Z,948.06
2022-09-01T12:20:53.963Z,948.01
2022-09-01T12:23:20.423Z,947.97
2022-09-01T12:25:46.929Z,947.92
2022-09-01T12:28:13.300Z,947.96
2022-09-01T12:30:39.721Z,947.93
2022-09-01T12:35:32.430Z,947.86
2022-09-01T12:37:58.833Z,947.93
2022-09-01T12:40:25.248Z,947.85
2022-09-01T12:42:51.654Z,947.90
2022-09-01T12:45:18.068Z,947.91
2022-09-01T12:47:44.473Z,947.83
2022-09-01T12:50:10.857Z,947.87
2022-09-01T12:52:37.541Z,947.87
2022-09-01T12:55:03.628Z,947.91
2022-09-01T12:57:30.014Z,947.89
2022-09-01T12:59:56.785Z,947.82
2022-09-01T13:02:23.011Z,947.79
2022-09-01T13:04:49.342Z,947.79
2022-09-01T13:07:15.884Z,947.78
2022-09-01T13:09:42.532Z,947.82
2022-09-01T13:12:08.627Z,947.76
2022-09-01T13:14:35.047Z,947.67
2022-09-01T13:17:01.420Z,947.63
2022-09-01T13:19:30.172Z,947.64
2022-09-01T13:21:54.200Z,947.58
2022-09-01T13:24:23.346Z,947.55
2022-09-01T13:27:20.303Z,947.53
2022-09-01T13:29:13.368Z,947.60
2022-09-01T13:32:17.111Z,947.68
2022-09-01T13:34:10.396Z,947.60
2022-09-01T13:36:51.533Z,947.67
2022-09-01T13:38:59.204Z,947.69
2022-09-01T13:41:25.576Z,947.68
2022-09-01T13:43:52.071Z,947.65
2022-09-01T13:46:18.482Z,947.66
2022-09-01T13:51:16.593Z,947.65
2022-09-01T13:53:37.645Z,947.63
2022-09-01T13:56:04.025Z,947.63
2022-09-01T13:58:30.402Z,947.71
2022-09-01T14:00:56.952Z,947.58
2022-09-01T14:03:23.261Z,947.78
2022-09-01T14:05:49.873Z,947.55
2022-09-01T14:08:16.059Z,947.62
2022-09-01T14:10:42.414Z,947.66
2022-09-01T14:13:08.787Z,947.58
2022-09-01T14:15:35.186Z,947.66
2022-09-01T14:18:01.584Z,947.61
2022-09-01T14:20:27.945Z,947.62
2022-09-01T14:22:54.332Z,947.65
2022-09-01T14:25:20.731Z,947.64
2022-09-01T14:27:47.590Z,947.65
2022-09-01T14:30:13.497Z,947.74
2022-09-01T14:32:39.909Z,947.78
2022-09-01T14:35:06.279Z,947.80
2022-09-01T14:37:32.781Z,947.92
2022-09-01T14:39:59.139Z,947.77
2022-09-01T14:42:25.510Z,947.78
2022-09-01T14:44:51.977Z,947.90
2022-09-01T14:47:19.254Z,947.83
2022-09-01T14:49:44.771Z,947.82
2022-09-01T14:52:11.823Z,947.82
2022-09-01T14:54:37.604Z,947.85
2022-09-01T14:59:30.339Z,947.76
2022-09-01T15:01:56.813Z,947.79
2022-09-01T15:04:23.185Z,947.79
2022-09-01T15:06:49.565Z,947.79
2022-09-01T15:09:18.977Z,947.79
2022-09-01T15:11:44.229Z,947.86
2022-09-01T15:14:08.820Z,947.81
2022-09-01T15:16:35.253Z,947.87
2022-09-01T15:19:01.704Z,947.85
2022-09-01T15:21:28.179Z,947.83
2022-09-01T15:23:54.801Z,947.84
2022-09-01T15:26:21.235Z,947.81
2022-09-01T15:28:47.668Z,947.71
2022-09-01T15:31:14.166Z,947.72
2022-09-01T15:33:40.421Z,947.70
2022-09-01T15:36:06.811Z,947.64
2022-09-01T15:38:33.310Z,947.75
2022-09-01T15:40:59.952Z,947.91
2022-09-01T15:43:26.323Z,947.93
2022-09-01T15:45:52.675Z,948.01
2022-09-01T15:48:19.058Z,948.05
2022-09-01T15:50:45.425Z,948.07
2022-09-01T15:53:11.798Z,948.12
2022-09-01T15:55:38.226Z,948.09
2022-09-01T15:58:04.659Z,948.04
2022-09-01T16:00:31.105Z,948.14
2022-09-01T16:02:57.446Z,948.23
2022-09-01T16:05:23.833Z,948.26
2022-09-01T16:07:50.283Z,948.26
2022-09-01T16:10:16.612Z,948.17
2022-09-01T16:12:42.977Z,948.21
2022-09-01T16:15:09.380Z,948.25
2022-09-01T16:17:35.815Z,948.24
2022-09-01T16:20:02.219Z,948.27
2022-09-01T16:22:28.572Z,948.18
2022-09-01T16:24:54.974Z,948.18
2022-09-01T16:27:21.345Z,948.21
2022-09-01T16:29:47.809Z,948.21
2022-09-01T16:32:14.107Z,948.18
2022-09-01T16:34:40.540Z,948.18
2022-09-01T16:37:06.900Z,948.26
2022-09-01T16:39:33.300Z,948.20
2022-09-01T16:41:59.735Z,948.24
2022-09-01T16:44:26.168Z,948.23
2022-09-01T16:46:52.663Z,948.29
2022-09-01T16:49:19.040Z,948.36
2022-09-01T16:51:45.407Z,948.39
2022-09-01T16:54:11.808Z,948.41
2022-09-01T16:56:38.209Z,948.49
2022-09-01T16:59:04.565Z,948.49
2022-09-01T17:01:31.056Z,948.44
2022-09-01T17:03:57.335Z,948.39
2022-09-01T17:06:23.761Z,948.43
2022-09-01T17:08:50.152Z,948.38
2022-09-01T17:11:16.525Z,948.35
2022-09-01T17:13:42.929Z,948.36
2022-09-01T17:16:09.335Z,948.28
2022-09-01T17:18:35.703Z,948.31
2022-09-01T17:21:02.052Z,948.37
2022-09-01T17:23:28.860Z,948.38
2022-09-01T17:25:54.791Z,948.45
2022-09-01T17:28:21.266Z,948.48
2022-09-01T17:30:47.546Z,948.38
2022-09-01T17:33:18.567Z,948.44
2022-09-01T17:35:40.417Z,948.50
2022-09-01T17:38:06.878Z,948.51
2022-09-01T17:40:33.396Z,948.57
2022-09-01T17:42:59.707Z,948.57
2022-09-01T17:45:26.185Z,948.55
2022-09-01T17:47:52.603Z,948.55
2022-09-01T17:50:18.976Z,948.54
2022-09-01T17:52:47.462Z,948.61
2022-09-01T17:55:11.809Z,948.61
2022-09-01T17:57:38.195Z,948.69
2022-09-01T18:00:04.589Z,948.59
2022-09-01T18:02:30.966Z,948.63
2022-09-01T18:04:57.512Z,948.60
2022-09-01T18:07:23.820Z,948.64
2022-09-01T18:09:50.187Z,948.60
2022-09-01T18:12:16.572Z,948.58
2022-09-01T18:14:42.976Z,948.67
2022-09-01T18:17:09.360Z,948.67
2022-09-01T18:19:35.748Z,948.67
2022-09-01T18:22:02.155Z,948.71
2022-09-01T18:24:28.558Z,948.72
2022-09-01T18:26:55.167Z,948.74
2022-09-01T18:29:21.581Z,948.68
2022-09-01T18:31:48.024Z,948.71
2022-09-01T18:34:14.419Z,948.73
2022-09-01T18:36:41.007Z,948.73
2022-09-01T18:39:07.689Z,948.85
2022-09-01T18:41:34.417Z,948.78
2022-09-01T18:44:01.061Z,948.82
2022-09-01T18:46:27.749Z,948.85
2022-09-01T18:48:54.439Z,948.83
2022-09-01T18:51:21.056Z,948.83
2022-09-01T18:53:47.705Z,948.86
2022-09-01T18:56:14.358Z,948.89
2022-09-01T18:58:41.106Z,948.90
2022-09-01T19:01:07.725Z,948.89
2022-09-01T19:03:34.359Z,948.98
2022-09-01T19:06:01.009Z,948.94
2022-09-01T19:08:27.771Z,949.02
2022-09-01T19:10:54.379Z,949.04
2022-09-01T19:13:20.977Z,949.08
2022-09-01T19:15:47.562Z,949.03
2022-09-01T19:18:14.300Z,949.12
2022-09-01T19:20:40.825Z,949.03
2022-09-01T19:23:07.462Z,949.01
2022-09-01T19:25:33.990Z,949.03
2022-09-01T19:28:00.647Z,949.12
2022-09-01T19:30:27.069Z,949.20
2022-09-01T19:32:53.501Z,949.20
2022-09-01T19:35:19.883Z,949.12
2022-09-01T19:37:46.300Z,949.20
2022-09-01T19:40:12.812Z,949.21
2022-09-01T19:42:39.126Z,949.18
2022-09-01T19:45:06.797Z,949.22
2022-09-01T19:47:31.929Z,949.20
2022-09-01T19:49:58.497Z,949.24
2022-09-01T19:52:24.860Z,949.28
2022-09-01T19:54:51.229Z,949.26
2022-09-01T19:57:17.614Z,949.27
2022-09-01T19:59:44.015Z,949.20
2022-09-01T20:02:10.466Z,949.13
2022-09-01T20:04:36.780Z,949.16
2022-09-01T20:07:03.175Z,949.20
2022-09-01T20:09:29.621Z,949.13
2022-09-01T20:11:55.990Z,949.10
2022-09-01T20:14:22.382Z,949.13
2022-09-01T20:16:48.817Z,949.15
2022-09-01T20:19:15.250Z,949.11
2022-09-01T20:21:41.676Z,949.16
2022-09-01T20:24:08.076Z,949.10
2022-09-01T20:26:34.451Z,949.15
2022-09-01T20:29:00.823Z,949.16
2022-09-01T20:31:27.286Z,949.09
2022-09-01T20:33:53.599Z,949.08
2022-09-01T20:36:20.067Z,949.08
2022-09-01T20:38:46.508Z,949.08
2022-09-01T20:41:12.891Z,949.15
2022-09-01T20:43:39.375Z,949.15
2022-09-01T20:46:05.781Z,949.10
2022-09-01T20:48:32.153Z,949.06
2022-09-01T20:50:58.572Z,949.09
2022-09-01T20:53:25.006Z,949.04
2022-09-01T20:55:51.408Z,949.04
2022-09-01T20:58:17.776Z,949.04
2022-09-01T21:00:44.201Z,949.06
2022-09-01T21:03:12.233Z,949.00
2022-09-01T21:05:39.941Z,949.03
2022-09-01T21:08:03.396Z,949.04
2022-09-01T21:10:29.772Z,949.10
2022-09-01T21:12:56.137Z,949.07
2022-09-01T21:15:22.504Z,949.10
2022-09-01T21:17:48.917Z,949.08
2022-09-01T21:20:15.287Z,949.22
2022-09-01T21:22:41.980Z,949.23
2022-09-01T21:25:08.342Z,949.21
2022-09-01T21:27:34.730Z,949.26
2022-09-01T21:30:01.100Z,949.29
2022-09-01T21:32:27.515Z,949.30
2022-09-01T21:34:53.925Z,949.33
2022-09-01T21:37:20.392Z,949.34
2022-09-01T21:39:46.773Z,949.37
2022-09-01T21:42:13.155Z,949.36
2022-09-01T21:44:39.586Z,949.30
2022-09-01T21:47:05.952Z,949.39
2022-09-01T21:49:33.217Z,949.37
2022-09-01T21:51:58.729Z,949.44
2022-09-01T21:54:25.125Z,949.45
2022-09-01T21:56:51.487Z,949.40
2022-09-01T21:59:17.886Z,949.46
2022-09-01T22:01:44.307Z,949.40
2022-09-01T22:04:10.744Z,949.40
2022-09-01T22:06:37.097Z,949.44
2022-09-01T22:09:03.482Z,949.44
2022-09-01T22:11:29.854Z,949.42
2022-09-01T22:13:56.238Z,949.35
2022-09-01T22:16:22.642Z,949.34
2022-09-01T22:18:49.037Z,949.27
2022-09-01T22:21:15.466Z,949.30
2022-09-01T22:23:41.880Z,949.30
2022-09-01T22:26:10.452Z,949.27
2022-09-01T22:28:34.767Z,949.23
2022-09-01T22:31:01.180Z,949.26
2022-09-01T22:33:27.530Z,949.19
2022-09-01T22:35:53.881Z,949.20
2022-09-01T22:38:20.390Z,949.11
2022-09-01T22:40:46.838Z,949.23
2022-09-01T22:43:13.331Z,949.17
2022-09-01T22:45:39.536Z,949.15
2022-09-01T22:48:05.925Z,949.06
2022-09-01T22:50:32.301Z,949.06
2022-09-01T22:52:58.690Z,949.05
2022-09-01T22:55:25.078Z,949.13
2022-09-01T22:57:51.546Z,949.16
2022-09-01T23:00:17.986Z,949.14
2022-09-01T23:02:44.442Z,949.10
2022-09-01T23:05:10.755Z,949.13
2022-09-01T23:07:37.116Z,949.04
2022-09-01T23:10:03.518Z,949.06
2022-09-01T23:12:29.882Z,949.04
2022-09-01T23:14:56.241Z,948.97
2022-09-01T23:17:22.710Z,948.98
2022-09-01T23:19:49.092Z,948.90
2022-09-01T23:22:15.467Z,948.84
2022-09-01T23:24:41.871Z,948.90
2022-09-01T23:27:08.255Z,948.82
2022-09-01T23:29:34.669Z,948.85
2022-09-01T23:32:01.103Z,948.76
2022-09-01T23:34:27.440Z,948.70
2022-09-01T23:36:53.821Z,948.75
2022-09-01T23:39:20.300Z,948.73
2022-09-01T23:41:46.672Z,948.82
2022-09-01T23:44:13.062Z,948.82
2022-09-01T23:46:39.434Z,948.81
2022-09-01T23:49:05.857Z,948.86
2022-09-01T23:51:32.256Z,948.79
2022-09-01T23:53:58.616Z,948.89
2022-09-01T23:56:24.985Z,948.91
2022-09-01T23:58:51.368Z,948.93
